Otter Lake, Michigan
Current Conditions -  °F | °C
As of 1:33 PM on Sunday 21 Dec 2014 (Local Time) from KD95 Reporting Station
Overcast Overcast  
Wind Chill: 26°   Ceiling: 6000
Heat Index: 32°   Visibility: 10mi
Dew Point: 23°   Wind: 7mph
Humidity: 70%   Direction: 200°SSW
Pressure: 30.23"   Gusts: NA
Location:  43.21°N, 83.45°W
Report Text: KD95 211833Z AUTO 20006KT 10SM SCT028 OVC060 00/M05 A3023 RMK AO2 T00001049
Loading
Personal Weather Stations






























Interactive Weather Map New forecast layout! Learn more

10-Day Weather Forecast

Advertisements
Track Severe Weather on mobile